createdAt,value
2019-03-17T00:00:32.786Z,77.31
2019-03-17T00:01:36.873Z,77.24
2019-03-17T00:02:41.068Z,77.26
2019-03-17T00:03:45.076Z,77.32
2019-03-17T00:04:49.221Z,77.17
2019-03-17T00:05:53.244Z,77.26
2019-03-17T00:06:57.272Z,77.29
2019-03-17T00:08:02.229Z,77.40
2019-03-17T00:09:07.507Z,77.26
2019-03-17T00:10:11.905Z,77.24
2019-03-17T00:11:16.092Z,77.24
2019-03-17T00:12:20.181Z,77.21
2019-03-17T00:13:24.304Z,77.17
2019-03-17T00:14:28.486Z,77.18
2019-03-17T00:15:32.569Z,77.24
2019-03-17T00:16:36.633Z,77.13
2019-03-17T00:17:41.856Z,77.17
2019-03-17T00:18:44.828Z,77.18
2019-03-17T00:19:48.913Z,77.06
2019-03-17T00:20:52.954Z,77.29
2019-03-17T00:21:56.994Z,77.26
2019-03-17T00:23:01.053Z,77.25
2019-03-17T00:24:05.216Z,77.27
2019-03-17T00:25:10.254Z,77.30
2019-03-17T00:26:13.502Z,77.37
2019-03-17T00:27:17.697Z,77.31
2019-03-17T00:28:21.685Z,77.23
2019-03-17T00:29:26.039Z,77.39
2019-03-17T00:30:30.332Z,77.29
2019-03-17T00:31:34.666Z,77.38
2019-03-17T00:32:39.072Z,77.20
2019-03-17T00:33:43.585Z,77.22
2019-03-17T00:34:50.755Z,77.30
2019-03-17T00:35:52.486Z,77.23
2019-03-17T00:36:56.725Z,77.88
2019-03-17T00:38:00.929Z,77.27
2019-03-17T00:39:06.370Z,77.83
2019-03-17T00:40:10.555Z,77.84
2019-03-17T00:41:14.660Z,77.96
2019-03-17T00:42:18.844Z,77.83
2019-03-17T00:43:22.869Z,77.98
2019-03-17T00:44:26.857Z,77.83
2019-03-17T00:45:30.977Z,77.85
2019-03-17T00:46:35.071Z,77.86
2019-03-17T00:47:39.179Z,78.00
2019-03-17T00:48:43.221Z,77.90
2019-03-17T00:49:47.393Z,77.82
2019-03-17T00:50:51.461Z,77.76
2019-03-17T00:51:55.556Z,77.69
2019-03-17T00:52:59.638Z,77.86
2019-03-17T00:54:03.706Z,77.84
2019-03-17T00:55:07.897Z,77.75
2019-03-17T00:56:12.007Z,77.82
2019-03-17T00:57:16.056Z,77.70
2019-03-17T00:58:20.231Z,77.84
2019-03-17T00:59:24.296Z,77.79
2019-03-17T01:00:28.505Z,77.83
2019-03-17T01:01:32.698Z,77.75
2019-03-17T01:02:36.792Z,77.80
2019-03-17T01:03:41.084Z,77.74
2019-03-17T01:04:55.666Z,77.72
2019-03-17T01:05:49.904Z,77.62
2019-03-17T01:06:54.388Z,77.80
2019-03-17T01:07:58.878Z,77.80
2019-03-17T01:09:03.426Z,77.70
2019-03-17T01:10:07.637Z,77.87
2019-03-17T01:11:11.687Z,77.79
2019-03-17T01:12:15.954Z,77.79
2019-03-17T01:13:20.142Z,77.82
2019-03-17T01:14:24.195Z,77.82
2019-03-17T01:15:28.256Z,77.79
2019-03-17T01:16:32.349Z,77.78
2019-03-17T01:17:36.429Z,77.78
2019-03-17T01:18:40.486Z,77.83
2019-03-17T01:19:44.561Z,77.80
2019-03-17T01:20:48.638Z,77.67
2019-03-17T01:21:52.746Z,77.93
2019-03-17T01:22:56.880Z,77.78
2019-03-17T01:24:00.957Z,77.57
2019-03-17T01:25:05.546Z,77.76
2019-03-17T01:26:09.564Z,77.69
2019-03-17T01:27:13.599Z,77.68
2019-03-17T01:28:17.754Z,77.65
2019-03-17T01:29:21.873Z,77.71
2019-03-17T01:30:25.948Z,77.50
2019-03-17T01:31:30.042Z,77.66
2019-03-17T01:32:34.100Z,77.71
2019-03-17T01:33:38.217Z,77.99
2019-03-17T01:34:42.261Z,77.69
2019-03-17T01:35:46.296Z,77.62
2019-03-17T01:36:50.355Z,77.59
2019-03-17T01:37:54.793Z,77.64
2019-03-17T01:38:58.918Z,77.81
2019-03-17T01:40:02.982Z,77.86
2019-03-17T01:41:07.090Z,77.67
2019-03-17T01:42:11.179Z,77.79
2019-03-17T01:43:21.677Z,77.86
2019-03-17T01:44:25.834Z,77.84
2019-03-17T01:45:29.913Z,77.95
2019-03-17T01:46:34.547Z,77.81
2019-03-17T01:47:38.720Z,77.71
2019-03-17T01:48:42.898Z,78.11
2019-03-17T01:49:47.005Z,77.80
2019-03-17T01:50:51.055Z,77.85
2019-03-17T01:51:55.161Z,77.89
2019-03-17T01:52:59.263Z,77.84
2019-03-17T01:54:03.383Z,77.87
2019-03-17T01:55:07.597Z,77.82
2019-03-17T01:56:11.675Z,77.77
2019-03-17T01:57:15.698Z,77.84
2019-03-17T01:58:19.726Z,77.84
2019-03-17T01:59:23.792Z,77.89
2019-03-17T02:00:28.056Z,78.16
2019-03-17T02:01:32.273Z,78.03
2019-03-17T02:02:36.589Z,78.03
2019-03-17T02:03:40.630Z,78.04
2019-03-17T02:04:44.689Z,78.23
2019-03-17T02:05:48.761Z,78.07
2019-03-17T02:06:52.829Z,78.71
2019-03-17T02:07:56.865Z,78.36
2019-03-17T02:09:00.888Z,78.70
2019-03-17T02:10:05.092Z,78.45
2019-03-17T02:11:09.176Z,78.46
2019-03-17T02:12:13.263Z,78.49
2019-03-17T02:13:17.329Z,78.55
2019-03-17T02:14:21.359Z,78.56
2019-03-17T02:15:25.385Z,78.43
2019-03-17T02:16:29.408Z,78.96
2019-03-17T02:17:33.449Z,78.83
2019-03-17T02:18:37.471Z,79.42
2019-03-17T02:19:41.507Z,78.92
2019-03-17T02:20:45.529Z,79.18
2019-03-17T02:21:49.550Z,79.33
2019-03-17T02:22:53.604Z,79.44
2019-03-17T02:23:57.644Z,79.19
2019-03-17T02:25:01.651Z,79.36
2019-03-17T02:26:05.745Z,79.17
2019-03-17T02:27:09.888Z,79.17
2019-03-17T02:28:13.908Z,79.23
2019-03-17T02:29:18.097Z,79.07
2019-03-17T02:30:22.200Z,79.25
2019-03-17T02:31:26.216Z,79.24
2019-03-17T02:32:30.247Z,79.33
2019-03-17T02:33:34.258Z,79.26
2019-03-17T02:34:38.293Z,79.58
2019-03-17T02:35:42.446Z,79.77
2019-03-17T02:36:46.548Z,79.58
2019-03-17T02:37:50.732Z,79.74
2019-03-17T02:38:54.778Z,79.63
2019-03-17T02:39:58.850Z,79.63
2019-03-17T02:41:02.849Z,79.56
2019-03-17T02:42:06.953Z,79.52
2019-03-17T02:43:11.053Z,79.68
2019-03-17T02:44:15.156Z,79.50
2019-03-17T02:45:19.193Z,79.68
2019-03-17T02:46:23.204Z,80.11
2019-03-17T02:47:27.215Z,79.81
2019-03-17T02:48:31.292Z,80.22
2019-03-17T02:49:35.365Z,80.08
2019-03-17T02:50:39.426Z,79.90
2019-03-17T02:51:43.528Z,80.21
2019-03-17T02:52:47.554Z,80.00
2019-03-17T02:53:51.600Z,80.86
2019-03-17T02:54:55.686Z,80.62
2019-03-17T02:55:59.759Z,80.65
2019-03-17T02:57:03.863Z,80.98
2019-03-17T02:58:07.899Z,80.68
2019-03-17T02:59:11.955Z,80.74
2019-03-17T03:00:18.442Z,80.56
2019-03-17T03:01:20.170Z,80.37
2019-03-17T03:02:24.227Z,80.57
2019-03-17T03:03:28.257Z,80.58
2019-03-17T03:04:32.268Z,80.77
2019-03-17T03:05:36.346Z,80.37
2019-03-17T03:06:40.450Z,80.39
2019-03-17T03:07:44.525Z,80.33
2019-03-17T03:08:48.638Z,80.58
2019-03-17T03:09:52.742Z,81.30
2019-03-17T03:10:56.827Z,80.59
2019-03-17T03:12:00.900Z,80.61
2019-03-17T03:13:04.958Z,80.53
2019-03-17T03:14:09.057Z,80.46
2019-03-17T03:15:13.182Z,80.30
2019-03-17T03:16:17.166Z,80.42
2019-03-17T03:17:21.193Z,80.77
2019-03-17T03:18:25.232Z,80.70
2019-03-17T03:19:29.204Z,80.39
2019-03-17T03:20:33.307Z,80.75
2019-03-17T03:21:37.350Z,80.33
2019-03-17T03:22:41.407Z,80.36
2019-03-17T03:23:45.493Z,80.58
2019-03-17T03:24:49.515Z,80.44
2019-03-17T03:25:53.575Z,80.38
2019-03-17T03:26:57.635Z,80.31
2019-03-17T03:28:01.704Z,80.33
2019-03-17T03:29:05.772Z,80.78
2019-03-17T03:30:10.053Z,80.41
2019-03-17T03:31:14.257Z,81.05
2019-03-17T03:32:18.349Z,80.68
2019-03-17T03:33:22.498Z,81.16
2019-03-17T03:34:26.534Z,80.63
2019-03-17T03:35:30.608Z,81.18
2019-03-17T03:36:34.666Z,81.11
2019-03-17T03:37:38.739Z,81.55
2019-03-17T03:38:42.794Z,81.46
2019-03-17T03:39:46.839Z,81.31
2019-03-17T03:40:50.875Z,80.92
2019-03-17T03:41:54.949Z,81.24
2019-03-17T03:42:59.378Z,81.29
2019-03-17T03:44:03.513Z,82.05
2019-03-17T03:45:08.045Z,82.48
2019-03-17T03:46:12.070Z,81.88
2019-03-17T03:47:16.131Z,81.91
2019-03-17T03:48:20.194Z,81.19
2019-03-17T03:49:24.280Z,80.99
2019-03-17T03:50:28.373Z,81.29
2019-03-17T03:51:32.419Z,81.58
2019-03-17T03:52:36.521Z,81.14
2019-03-17T03:53:40.624Z,81.48
2019-03-17T03:54:44.697Z,81.66
2019-03-17T03:55:48.778Z,81.05
2019-03-17T03:56:52.912Z,81.15
2019-03-17T03:57:57.969Z,81.19
2019-03-17T03:59:02.078Z,81.48
2019-03-17T04:00:06.870Z,80.94
2019-03-17T04:01:10.955Z,81.45
2019-03-17T04:02:15.009Z,81.50
2019-03-17T04:03:19.290Z,81.86
2019-03-17T04:04:23.346Z,81.94
2019-03-17T04:05:27.395Z,82.52
2019-03-17T04:06:31.429Z,82.29
2019-03-17T04:07:35.521Z,82.08
2019-03-17T04:08:39.688Z,82.37
2019-03-17T04:09:43.740Z,82.78
2019-03-17T04:10:47.799Z,81.87
2019-03-17T04:11:51.889Z,81.59
2019-03-17T04:12:56.061Z,82.53
2019-03-17T04:14:00.129Z,81.98
2019-03-17T04:15:05.281Z,82.23
2019-03-17T04:16:09.294Z,81.66
2019-03-17T04:17:13.383Z,81.84
2019-03-17T04:18:18.301Z,82.14
2019-03-17T04:19:22.532Z,81.91
2019-03-17T04:20:26.581Z,81.90
2019-03-17T04:21:30.705Z,82.45
2019-03-17T04:22:34.816Z,82.19
2019-03-17T04:23:38.910Z,81.71
2019-03-17T04:24:43.209Z,81.40
2019-03-17T04:25:47.315Z,82.13
2019-03-17T04:26:52.193Z,82.18
2019-03-17T04:27:56.315Z,82.81
2019-03-17T04:29:00.482Z,82.53
2019-03-17T04:30:04.765Z,82.59
2019-03-17T04:31:08.870Z,82.44
2019-03-17T04:32:13.241Z,82.46
2019-03-17T04:33:17.394Z,82.28
2019-03-17T04:34:21.424Z,81.81
2019-03-17T04:35:25.533Z,82.01
2019-03-17T04:36:39.477Z,82.85
2019-03-17T04:37:33.786Z,82.61
2019-03-17T04:38:37.904Z,82.05
2019-03-17T04:39:42.353Z,82.15
2019-03-17T04:40:46.895Z,81.75
2019-03-17T04:41:50.882Z,82.86
2019-03-17T04:42:54.911Z,82.45
2019-03-17T04:43:58.989Z,82.74
2019-03-17T04:45:03.124Z,82.41
2019-03-17T04:46:07.344Z,82.62
2019-03-17T04:47:11.431Z,83.32
2019-03-17T04:48:15.433Z,82.67
2019-03-17T04:49:19.474Z,83.02
2019-03-17T04:50:23.505Z,82.88
2019-03-17T04:51:27.602Z,82.63
2019-03-17T04:52:31.700Z,82.78
2019-03-17T04:53:35.721Z,82.66
2019-03-17T04:54:39.737Z,82.41
2019-03-17T04:55:43.726Z,82.55
2019-03-17T04:56:47.790Z,83.22
2019-03-17T04:57:51.816Z,82.62
2019-03-17T04:58:55.854Z,82.44
2019-03-17T05:00:00.028Z,83.04
2019-03-17T05:01:04.210Z,82.23
2019-03-17T05:02:08.569Z,82.81
2019-03-17T05:03:12.601Z,82.47
2019-03-17T05:04:16.679Z,82.96
2019-03-17T05:05:20.730Z,82.91
2019-03-17T05:06:24.834Z,82.56
2019-03-17T05:07:28.955Z,82.76
2019-03-17T05:08:33.101Z,83.26
2019-03-17T05:09:37.199Z,82.87
2019-03-17T05:10:41.269Z,82.87
2019-03-17T05:11:45.762Z,82.82
2019-03-17T05:12:50.306Z,82.96
2019-03-17T05:13:54.628Z,82.65
2019-03-17T05:14:58.983Z,82.82
2019-03-17T05:16:03.374Z,82.37
2019-03-17T05:17:07.572Z,82.54
2019-03-17T05:18:11.744Z,82.83
2019-03-17T05:19:15.805Z,82.29
2019-03-17T05:20:19.924Z,83.06
2019-03-17T05:21:24.115Z,82.63
2019-03-17T05:22:28.129Z,82.55
2019-03-17T05:23:32.256Z,82.43
2019-03-17T05:24:36.701Z,83.35
2019-03-17T05:25:40.829Z,82.52
2019-03-17T05:26:45.297Z,82.52
2019-03-17T05:27:49.521Z,82.41
2019-03-17T05:28:53.783Z,82.95
2019-03-17T05:29:58.120Z,82.56
2019-03-17T05:31:02.187Z,82.86
2019-03-17T05:32:06.556Z,82.47
2019-03-17T05:33:10.619Z,82.30
2019-03-17T05:34:14.742Z,82.56
2019-03-17T05:35:18.792Z,82.67
2019-03-17T05:36:23.018Z,82.59
2019-03-17T05:37:27.497Z,82.20
2019-03-17T05:38:31.709Z,82.73
2019-03-17T05:39:35.834Z,82.69
2019-03-17T05:40:39.961Z,82.18
2019-03-17T05:41:44.286Z,82.17
2019-03-17T05:42:48.728Z,81.90
2019-03-17T05:43:53.019Z,81.87
2019-03-17T05:44:57.378Z,82.82
2019-03-17T05:46:01.468Z,82.25
2019-03-17T05:47:05.753Z,82.56
2019-03-17T05:48:09.987Z,82.15
2019-03-17T05:49:14.211Z,82.60
2019-03-17T05:50:18.433Z,82.55
2019-03-17T05:51:22.519Z,82.38
2019-03-17T05:52:26.612Z,82.88
2019-03-17T05:53:31.770Z,82.34
2019-03-17T05:54:35.865Z,82.24
2019-03-17T05:55:39.995Z,82.44
2019-03-17T05:56:44.116Z,82.28
2019-03-17T05:57:48.656Z,82.20
2019-03-17T05:58:52.750Z,82.04
2019-03-17T05:59:56.889Z,82.37
2019-03-17T06:01:01.302Z,82.22
2019-03-17T06:02:07.179Z,82.12
2019-03-17T06:03:11.354Z,82.41
2019-03-17T06:04:15.655Z,82.64
2019-03-17T06:05:19.797Z,82.44
2019-03-17T06:06:24.019Z,82.50
2019-03-17T06:07:28.350Z,82.21
2019-03-17T06:08:33.657Z,82.34
2019-03-17T06:09:37.069Z,82.34
2019-03-17T06:10:43.160Z,83.08
2019-03-17T06:11:48.005Z,82.41
2019-03-17T06:12:52.438Z,82.61
2019-03-17T06:13:57.125Z,82.67
2019-03-17T06:15:01.407Z,82.77
2019-03-17T06:16:05.717Z,82.61
2019-03-17T06:17:10.660Z,82.81
2019-03-17T06:18:14.676Z,82.85
2019-03-17T06:19:18.700Z,82.94
2019-03-17T06:20:22.741Z,82.94
2019-03-17T06:21:26.765Z,82.62
2019-03-17T06:22:30.940Z,82.59
2019-03-17T06:23:35.067Z,82.53
2019-03-17T06:24:39.089Z,82.32
2019-03-17T06:25:43.165Z,82.66
2019-03-17T06:26:47.218Z,82.00
2019-03-17T06:27:52.190Z,82.31
2019-03-17T06:28:58.148Z,82.24
2019-03-17T06:30:02.704Z,82.30
2019-03-17T06:31:07.244Z,82.34
2019-03-17T06:32:11.709Z,82.61
2019-03-17T06:33:16.036Z,82.56
2019-03-17T06:34:20.529Z,82.59
2019-03-17T06:35:24.589Z,82.31
2019-03-17T06:36:29.353Z,82.66
2019-03-17T06:37:33.863Z,82.27
2019-03-17T06:38:39.112Z,82.29
2019-03-17T06:39:43.402Z,82.02
2019-03-17T06:40:47.463Z,82.50
2019-03-17T06:41:51.769Z,82.47
2019-03-17T06:42:56.056Z,82.15
2019-03-17T06:44:00.754Z,82.14
2019-03-17T06:45:07.686Z,82.00
2019-03-17T06:46:11.931Z,81.76
2019-03-17T06:47:17.080Z,81.97
2019-03-17T06:48:22.938Z,81.77
2019-03-17T06:49:27.187Z,81.47
2019-03-17T06:50:32.865Z,81.56
2019-03-17T06:51:37.666Z,81.67
2019-03-17T06:52:42.057Z,81.64
2019-03-17T06:53:55.777Z,81.58
2019-03-17T06:54:51.388Z,81.59
2019-03-17T06:55:56.453Z,81.31
2019-03-17T06:57:00.630Z,81.47
2019-03-17T06:58:05.457Z,81.63
2019-03-17T06:59:12.201Z,81.30
2019-03-17T07:00:17.228Z,81.49
2019-03-17T07:01:21.292Z,81.05
2019-03-17T07:02:25.569Z,81.33
2019-03-17T07:03:31.641Z,81.20
2019-03-17T07:04:42.416Z,81.10
2019-03-17T07:05:48.687Z,81.17
2019-03-17T07:06:53.166Z,80.98
2019-03-17T07:07:57.488Z,81.02
2019-03-17T07:09:01.627Z,80.86
2019-03-17T07:10:06.181Z,81.10
2019-03-17T07:11:17.440Z,80.81
2019-03-17T07:12:21.770Z,80.72
2019-03-17T07:13:26.386Z,81.17
2019-03-17T07:14:31.093Z,81.28
2019-03-17T07:15:35.165Z,81.19
2019-03-17T07:16:39.291Z,81.18
2019-03-17T07:17:44.206Z,81.28
2019-03-17T07:18:50.096Z,81.40
2019-03-17T07:19:54.247Z,81.02
2019-03-17T07:20:59.332Z,80.98
2019-03-17T07:22:04.462Z,80.87
2019-03-17T07:23:08.765Z,80.64
2019-03-17T07:24:13.181Z,80.80
2019-03-17T07:25:22.647Z,80.64
2019-03-17T07:26:26.991Z,80.59
2019-03-17T07:27:31.397Z,80.86
2019-03-17T07:28:38.550Z,80.90
2019-03-17T07:29:42.855Z,80.88
2019-03-17T07:30:47.075Z,81.14
2019-03-17T07:31:51.268Z,80.81
2019-03-17T07:32:55.485Z,81.01
2019-03-17T07:34:00.079Z,80.86
2019-03-17T07:35:09.316Z,80.45
2019-03-17T07:36:14.759Z,80.53
2019-03-17T07:37:19.215Z,80.66
2019-03-17T07:38:23.433Z,80.49
2019-03-17T07:39:27.661Z,80.77
2019-03-17T07:40:32.294Z,80.48
2019-03-17T07:41:36.466Z,81.02
2019-03-17T07:42:40.802Z,81.30
2019-03-17T07:43:45.128Z,81.19
2019-03-17T07:44:49.664Z,80.67
2019-03-17T07:45:53.852Z,80.55
2019-03-17T07:47:00.575Z,80.79
2019-03-17T07:48:04.756Z,80.84
2019-03-17T07:49:08.906Z,80.70
2019-03-17T07:50:13.171Z,80.56
2019-03-17T07:51:17.264Z,80.50
2019-03-17T07:52:21.366Z,80.74
2019-03-17T07:53:25.535Z,80.99
2019-03-17T07:54:30.253Z,81.24
2019-03-17T07:55:34.362Z,81.28
2019-03-17T07:56:38.710Z,81.02
2019-03-17T07:57:42.927Z,81.16
2019-03-17T07:58:47.240Z,80.99
2019-03-17T07:59:51.369Z,81.31
2019-03-17T08:00:55.573Z,81.00
2019-03-17T08:01:59.683Z,81.08
2019-03-17T08:03:03.786Z,81.08
2019-03-17T08:04:07.882Z,81.27
2019-03-17T08:05:11.959Z,80.96
2019-03-17T08:06:16.203Z,80.63
2019-03-17T08:07:30.320Z,80.55
2019-03-17T08:08:34.515Z,80.74
2019-03-17T08:09:38.679Z,80.50
2019-03-17T08:10:42.729Z,80.60
2019-03-17T08:11:47.163Z,80.06
2019-03-17T08:12:51.231Z,80.00
2019-03-17T08:13:55.440Z,79.71
2019-03-17T08:14:59.975Z,79.83
2019-03-17T08:16:04.168Z,79.92
2019-03-17T08:17:08.390Z,80.21
2019-03-17T08:18:12.560Z,79.81
2019-03-17T08:19:16.906Z,79.41
2019-03-17T08:20:21.506Z,79.98
2019-03-17T08:21:25.650Z,79.72
2019-03-17T08:22:29.727Z,79.89
2019-03-17T08:23:34.204Z,80.11
2019-03-17T08:24:38.428Z,79.55
2019-03-17T08:25:42.589Z,79.54
2019-03-17T08:26:50.021Z,79.12
2019-03-17T08:27:52.200Z,78.85
2019-03-17T08:28:57.099Z,78.38
2019-03-17T08:30:01.843Z,78.23
2019-03-17T08:31:06.312Z,78.13
2019-03-17T08:32:11.042Z,78.29
2019-03-17T08:33:15.242Z,78.17
2019-03-17T08:34:19.346Z,78.25
2019-03-17T08:35:23.548Z,79.95
2019-03-17T08:36:27.937Z,83.36
2019-03-17T08:37:32.144Z,82.65
2019-03-17T08:38:36.987Z,80.24
2019-03-17T08:39:41.338Z,79.55
2019-03-17T08:40:45.583Z,79.71
2019-03-17T08:41:49.860Z,78.92
2019-03-17T08:42:54.055Z,79.32
2019-03-17T08:43:58.208Z,84.41
2019-03-17T08:45:02.408Z,88.22
2019-03-17T08:46:06.551Z,89.41
2019-03-17T08:47:10.825Z,87.86
2019-03-17T08:48:15.065Z,86.49
2019-03-17T08:49:19.202Z,84.88
2019-03-17T08:50:23.949Z,83.78
2019-03-17T08:51:28.245Z,81.28
2019-03-17T08:52:34.550Z,79.84
2019-03-17T08:53:38.520Z,77.51
2019-03-17T08:54:44.557Z,79.00
2019-03-17T08:55:48.987Z,77.33
2019-03-17T08:56:54.155Z,78.13
2019-03-17T08:57:58.562Z,78.36
2019-03-17T08:59:03.770Z,77.63
2019-03-17T09:00:09.876Z,77.37
2019-03-17T09:01:14.205Z,77.36
2019-03-17T09:02:19.478Z,81.08
2019-03-17T09:03:23.720Z,81.55
2019-03-17T09:04:28.806Z,80.85
2019-03-17T09:05:35.126Z,80.22
2019-03-17T09:06:39.695Z,78.58
2019-03-17T09:07:44.172Z,77.45
2019-03-17T09:08:49.688Z,77.09
2019-03-17T09:09:54.101Z,76.57
2019-03-17T09:10:59.325Z,76.03
2019-03-17T09:12:04.521Z,76.07
2019-03-17T09:13:09.192Z,76.20
2019-03-17T09:14:14.526Z,76.69
2019-03-17T09:15:19.324Z,76.31
2019-03-17T09:16:25.687Z,76.31
2019-03-17T09:17:29.912Z,76.38
2019-03-17T09:18:35.220Z,76.40
2019-03-17T09:19:39.548Z,76.52
2019-03-17T09:20:44.457Z,76.55
2019-03-17T09:21:48.678Z,76.71
2019-03-17T09:22:52.971Z,76.69
2019-03-17T09:23:57.199Z,76.57
2019-03-17T09:25:01.485Z,76.55
2019-03-17T09:26:06.667Z,76.39
2019-03-17T09:27:11.991Z,76.04
2019-03-17T09:28:16.697Z,75.88
2019-03-17T09:29:21.339Z,75.58
2019-03-17T09:30:26.660Z,76.16
2019-03-17T09:31:31.094Z,76.21
2019-03-17T09:32:36.837Z,75.96
2019-03-17T09:33:41.023Z,75.83
2019-03-17T09:34:45.635Z,75.45
2019-03-17T09:35:52.558Z,75.23
2019-03-17T09:36:57.543Z,74.86
2019-03-17T09:38:02.858Z,74.95
2019-03-17T09:39:08.543Z,75.04
2019-03-17T09:40:14.592Z,75.14
2019-03-17T09:41:19.199Z,74.74
2019-03-17T09:42:23.350Z,75.14
2019-03-17T09:43:27.666Z,75.04
2019-03-17T09:44:31.815Z,75.34
2019-03-17T09:45:36.888Z,74.86
2019-03-17T09:46:41.476Z,75.23
2019-03-17T09:47:46.260Z,75.11
2019-03-17T09:48:50.853Z,74.92
2019-03-17T09:49:55.056Z,74.05
2019-03-17T09:50:59.176Z,74.46
2019-03-17T09:52:03.362Z,75.12
2019-03-17T09:53:07.488Z,74.78
2019-03-17T09:54:14.659Z,75.26
2019-03-17T09:55:19.007Z,74.62
2019-03-17T09:56:23.123Z,74.45
2019-03-17T09:57:27.493Z,75.07
2019-03-17T09:58:31.581Z,74.53
2019-03-17T09:59:35.904Z,74.61
2019-03-17T10:00:40.627Z,74.72
2019-03-17T10:01:45.053Z,74.24
2019-03-17T10:02:49.470Z,74.01
2019-03-17T10:03:54.226Z,73.65
2019-03-17T10:04:58.517Z,73.94
2019-03-17T10:06:02.878Z,73.58
2019-03-17T10:07:06.999Z,74.20
2019-03-17T10:08:11.313Z,73.71
2019-03-17T10:09:15.611Z,73.74
2019-03-17T10:10:19.763Z,73.62
2019-03-17T10:11:24.217Z,73.85
2019-03-17T10:12:28.443Z,74.21
2019-03-17T10:13:32.644Z,74.45
2019-03-17T10:14:36.979Z,74.47
2019-03-17T10:15:41.130Z,74.01
2019-03-17T10:16:45.213Z,73.23
2019-03-17T10:17:49.508Z,73.51
2019-03-17T10:18:53.695Z,72.97
2019-03-17T10:19:57.787Z,71.99
2019-03-17T10:21:02.170Z,72.68
2019-03-17T10:22:06.331Z,71.71
2019-03-17T10:23:10.619Z,72.46
2019-03-17T10:24:14.734Z,72.02
2019-03-17T10:25:18.980Z,71.14
2019-03-17T10:26:23.113Z,72.18
2019-03-17T10:27:27.280Z,72.18
2019-03-17T10:28:31.438Z,71.37
2019-03-17T10:29:36.145Z,71.30
2019-03-17T10:30:40.382Z,71.30
2019-03-17T10:31:44.486Z,71.15
2019-03-17T10:32:48.585Z,71.17
2019-03-17T10:33:52.952Z,72.19
2019-03-17T10:34:57.425Z,71.50
2019-03-17T10:36:01.631Z,72.55
2019-03-17T10:37:06.120Z,71.43
2019-03-17T10:38:10.618Z,72.09
2019-03-17T10:39:14.773Z,71.75
2019-03-17T10:40:19.142Z,72.98
2019-03-17T10:41:23.252Z,72.58
2019-03-17T10:42:27.432Z,73.10
2019-03-17T10:43:32.065Z,73.56
2019-03-17T10:44:36.334Z,72.87
2019-03-17T10:45:40.575Z,72.06
2019-03-17T10:46:44.814Z,72.29
2019-03-17T10:47:49.131Z,71.77
2019-03-17T10:48:53.304Z,71.17
2019-03-17T10:49:57.532Z,73.03
2019-03-17T10:51:01.824Z,73.19
2019-03-17T10:52:06.194Z,72.56
2019-03-17T10:53:10.451Z,73.10
2019-03-17T10:54:15.100Z,72.82
2019-03-17T10:55:18.974Z,72.75
2019-03-17T10:56:23.293Z,73.37
2019-03-17T10:57:27.487Z,73.03
2019-03-17T10:58:31.789Z,73.06
2019-03-17T10:59:36.153Z,72.15
2019-03-17T11:00:40.321Z,69.99
2019-03-17T11:01:44.601Z,70.71
2019-03-17T11:02:48.930Z,69.03
2019-03-17T11:03:53.814Z,67.67
2019-03-17T11:04:58.147Z,70.19
2019-03-17T11:06:02.331Z,70.41
2019-03-17T11:07:06.696Z,70.06
2019-03-17T11:08:10.892Z,69.94
2019-03-17T11:09:24.730Z,70.61
2019-03-17T11:10:19.818Z,72.09
2019-03-17T11:11:24.135Z,71.84
2019-03-17T11:12:28.903Z,72.62
2019-03-17T11:13:33.534Z,70.62
2019-03-17T11:14:37.821Z,69.99
2019-03-17T11:15:42.166Z,67.75
2019-03-17T11:16:46.376Z,69.48
2019-03-17T11:17:50.626Z,70.85
2019-03-17T11:18:55.058Z,70.88
2019-03-17T11:20:00.026Z,70.32
2019-03-17T11:21:05.387Z,68.40
2019-03-17T11:22:10.965Z,68.21
2019-03-17T11:23:16.223Z,68.92
2019-03-17T11:24:29.585Z,69.62
2019-03-17T11:25:34.066Z,67.95
2019-03-17T11:26:38.619Z,67.95
2019-03-17T11:27:42.977Z,68.21
2019-03-17T11:28:47.388Z,66.75
2019-03-17T11:29:51.649Z,66.96
2019-03-17T11:30:59.173Z,66.58
2019-03-17T11:32:06.338Z,66.43
2019-03-17T11:33:07.695Z,66.31
2019-03-17T11:34:12.066Z,66.45
2019-03-17T11:35:16.858Z,65.94
2019-03-17T11:36:21.153Z,63.10
2019-03-17T11:37:25.371Z,67.77
2019-03-17T11:38:29.683Z,68.76
2019-03-17T11:39:38.047Z,67.63
2019-03-17T11:40:38.276Z,64.16
2019-03-17T11:41:42.652Z,66.69
2019-03-17T11:42:49.544Z,66.18
2019-03-17T11:43:51.302Z,63.74
2019-03-17T11:44:55.500Z,63.07
2019-03-17T11:46:00.064Z,61.37
2019-03-17T11:47:04.399Z,66.18
2019-03-17T11:48:08.684Z,64.42
2019-03-17T11:49:13.070Z,66.61
2019-03-17T11:50:17.313Z,67.64
2019-03-17T11:51:21.492Z,67.07
2019-03-17T11:52:25.872Z,66.17
2019-03-17T11:53:30.052Z,66.63
2019-03-17T11:54:34.288Z,67.88
2019-03-17T11:55:38.498Z,67.46
2019-03-17T11:56:42.850Z,70.50
2019-03-17T11:57:47.477Z,68.29
2019-03-17T11:58:51.603Z,71.23
2019-03-17T11:59:56.206Z,70.50
2019-03-17T12:01:00.927Z,70.74
2019-03-17T12:02:05.758Z,72.86
2019-03-17T12:03:09.961Z,72.69
2019-03-17T12:04:14.506Z,71.92
2019-03-17T12:05:19.048Z,70.60
2019-03-17T12:06:24.068Z,71.60
2019-03-17T12:07:28.290Z,72.75
2019-03-17T12:08:32.590Z,73.66
2019-03-17T12:09:45.575Z,73.08
2019-03-17T12:10:41.158Z,73.93
2019-03-17T12:11:45.358Z,75.50
2019-03-17T12:12:50.775Z,73.77
2019-03-17T12:13:54.970Z,75.26
2019-03-17T12:14:59.314Z,76.08
2019-03-17T12:16:03.806Z,73.85
2019-03-17T12:17:07.975Z,76.57
2019-03-17T12:18:12.178Z,74.88
2019-03-17T12:19:16.461Z,74.68
2019-03-17T12:20:20.672Z,75.64
2019-03-17T12:21:25.026Z,74.87
2019-03-17T12:22:29.336Z,75.57
2019-03-17T12:23:33.611Z,75.34
2019-03-17T12:24:38.017Z,75.15
2019-03-17T12:25:42.354Z,74.02
2019-03-17T12:26:46.743Z,75.07
2019-03-17T12:27:50.874Z,73.92
2019-03-17T12:28:55.022Z,74.06
2019-03-17T12:29:59.260Z,74.75
2019-03-17T12:31:03.479Z,73.31
2019-03-17T12:32:08.937Z,72.89
2019-03-17T12:33:13.526Z,73.95
2019-03-17T12:34:27.881Z,73.45
2019-03-17T12:35:22.139Z,71.75
2019-03-17T12:36:26.312Z,70.91
2019-03-17T12:37:30.508Z,70.75
2019-03-17T12:38:34.956Z,71.92
2019-03-17T12:39:39.140Z,70.47
2019-03-17T12:40:43.336Z,70.18
2019-03-17T12:41:47.410Z,70.20
2019-03-17T12:42:52.502Z,68.94
2019-03-17T12:43:56.735Z,68.63
2019-03-17T12:45:01.017Z,70.48
2019-03-17T12:46:05.249Z,70.74
2019-03-17T12:47:09.371Z,68.65
2019-03-17T12:48:13.482Z,70.59
2019-03-17T12:49:17.629Z,67.51
2019-03-17T12:50:21.799Z,68.45
2019-03-17T12:51:25.884Z,70.58
2019-03-17T12:52:30.036Z,71.08
2019-03-17T12:53:34.297Z,68.85
2019-03-17T12:54:38.505Z,68.31
2019-03-17T12:55:42.786Z,67.25
2019-03-17T12:56:47.129Z,67.24
2019-03-17T12:57:51.340Z,66.84
2019-03-17T12:58:55.528Z,67.57
2019-03-17T13:00:00.034Z,70.01
2019-03-17T13:01:04.333Z,66.77
2019-03-17T13:02:08.510Z,70.78
2019-03-17T13:03:12.709Z,68.38
2019-03-17T13:04:16.916Z,67.51
2019-03-17T13:05:21.155Z,67.31
2019-03-17T13:06:25.588Z,66.04
2019-03-17T13:07:29.747Z,66.30
2019-03-17T13:08:33.995Z,68.97
2019-03-17T13:09:38.374Z,67.84
2019-03-17T13:10:42.643Z,65.92
2019-03-17T13:11:46.827Z,63.60
2019-03-17T13:12:50.968Z,65.96
2019-03-17T13:13:55.193Z,63.12
2019-03-17T13:14:59.506Z,65.47
2019-03-17T13:16:03.817Z,64.13
2019-03-17T13:17:08.134Z,64.02
2019-03-17T13:18:12.258Z,64.79
2019-03-17T13:19:17.229Z,60.18
2019-03-17T13:20:21.468Z,62.52
2019-03-17T13:21:25.807Z,62.18
2019-03-17T13:22:30.165Z,61.82
2019-03-17T13:23:34.419Z,60.73
2019-03-17T13:24:38.717Z,56.41
2019-03-17T13:25:43.131Z,56.57
2019-03-17T13:26:47.495Z,53.53
2019-03-17T13:27:51.887Z,57.03
2019-03-17T13:28:56.033Z,55.04
2019-03-17T13:30:00.375Z,55.45
2019-03-17T13:31:04.554Z,55.38
2019-03-17T13:32:08.732Z,54.21
2019-03-17T13:33:13.041Z,53.30
2019-03-17T13:34:17.283Z,55.17
2019-03-17T13:35:21.761Z,53.38
2019-03-17T13:36:26.013Z,53.67
2019-03-17T13:37:33.280Z,54.36
2019-03-17T13:38:39.347Z,53.29
2019-03-17T13:39:44.067Z,53.35
2019-03-17T13:40:48.756Z,52.50
2019-03-17T13:41:53.685Z,51.92
2019-03-17T13:42:58.584Z,54.63
2019-03-17T13:44:03.125Z,53.61
2019-03-17T13:45:07.611Z,53.80
2019-03-17T13:46:11.972Z,53.70
2019-03-17T13:47:16.811Z,52.82
2019-03-17T13:48:21.003Z,55.79
2019-03-17T13:49:25.174Z,56.35